createdAt,value
2023-05-08T00:01:47.644Z,8.45
2023-05-08T00:04:15.673Z,7.85
2023-05-08T00:06:43.229Z,6.90
2023-05-08T00:09:11.175Z,7.80
2023-05-08T00:11:39.071Z,7.47
2023-05-08T00:14:06.545Z,6.93
2023-05-08T00:16:33.945Z,8.80
2023-05-08T00:19:01.721Z,7.62
2023-05-08T00:21:29.234Z,8.05
2023-05-08T00:23:56.699Z,8.52
2023-05-08T00:26:24.328Z,7.57
2023-05-08T00:28:51.901Z,7.78
2023-05-08T00:31:19.345Z,7.80
2023-05-08T00:33:46.996Z,7.85
2023-05-08T00:36:15.802Z,8.27
2023-05-08T00:38:43.197Z,8.73
2023-05-08T00:41:10.896Z,8.15
2023-05-08T00:43:40.208Z,9.13
2023-05-08T00:46:09.901Z,8.18
2023-05-08T00:48:38.301Z,7.80
2023-05-08T00:51:07.678Z,8.20
2023-05-08T00:53:37.684Z,8.32
2023-05-08T00:56:06.066Z,7.32
2023-05-08T00:58:33.651Z,8.50
2023-05-08T01:01:03.767Z,8.60
2023-05-08T01:03:33.769Z,9.18
2023-05-08T01:06:02.698Z,8.40
2023-05-08T01:08:31.202Z,9.90
2023-05-08T01:11:38.216Z,9.23
2023-05-08T01:14:16.444Z,9.68
2023-05-08T01:17:00.459Z,8.65
2023-05-08T01:19:43.143Z,10.23
2023-05-08T01:22:29.268Z,8.20
2023-05-08T01:25:06.890Z,8.15
2023-05-08T01:27:41.140Z,8.50
2023-05-08T01:30:37.808Z,8.57
2023-05-08T01:33:13.611Z,8.32
2023-05-08T01:35:49.587Z,7.95
2023-05-08T01:38:30.853Z,8.30
2023-05-08T01:41:10.815Z,9.10
2023-05-08T01:43:57.061Z,9.30
2023-05-08T01:46:27.279Z,8.35
2023-05-08T01:49:21.110Z,8.75
2023-05-08T01:52:07.265Z,8.97
2023-05-08T01:54:40.482Z,8.63
2023-05-08T01:57:09.529Z,9.40
2023-05-08T01:59:38.590Z,10.27
2023-05-08T02:02:06.518Z,10.43
2023-05-08T02:04:35.055Z,9.10
2023-05-08T02:07:05.642Z,8.77
2023-05-08T02:09:33.089Z,11.05
2023-05-08T02:12:01.318Z,9.73
2023-05-08T02:14:29.724Z,8.73
2023-05-08T02:16:57.917Z,8.80
2023-05-08T02:19:26.393Z,9.85
2023-05-08T02:21:55.418Z,9.23
2023-05-08T02:24:24.230Z,10.10
2023-05-08T02:26:53.013Z,9.23
2023-05-08T02:29:22.769Z,9.83
2023-05-08T02:31:51.237Z,9.02
2023-05-08T02:34:18.783Z,9.50
2023-05-08T02:36:46.756Z,11.75
2023-05-08T02:39:15.254Z,9.73
2023-05-08T02:41:42.824Z,10.57
2023-05-08T02:44:10.983Z,9.95
2023-05-08T02:46:51.330Z,11.10
2023-05-08T02:49:46.693Z,10.23
2023-05-08T02:52:20.537Z,13.45
2023-05-08T02:55:04.501Z,10.65
2023-05-08T02:58:07.481Z,10.98
2023-05-08T03:00:42.753Z,10.98
2023-05-08T03:03:19.494Z,12.45
2023-05-08T03:06:10.197Z,12.27
2023-05-08T03:08:38.337Z,11.93
2023-05-08T03:11:09.519Z,13.20
2023-05-08T03:13:39.033Z,11.75
2023-05-08T03:16:11.868Z,13.90
2023-05-08T03:18:47.778Z,13.20
2023-05-08T03:21:18.562Z,11.93
2023-05-08T03:23:48.142Z,11.82
2023-05-08T03:26:22.395Z,11.55
2023-05-08T03:28:50.852Z,9.65
2023-05-08T03:31:23.113Z,9.90
2023-05-08T03:33:54.202Z,10.30
2023-05-08T03:36:22.594Z,9.13
2023-05-08T03:38:50.055Z,11.27
2023-05-08T03:41:17.537Z,10.67
2023-05-08T03:43:45.617Z,9.90
2023-05-08T03:46:31.636Z,9.90
2023-05-08T03:49:00.528Z,10.82
2023-05-08T03:51:28.478Z,11.23
2023-05-08T03:53:56.117Z,13.68
2023-05-08T03:56:25.924Z,12.07
2023-05-08T03:59:03.237Z,13.00
2023-05-08T04:01:40.816Z,14.13
2023-05-08T04:04:42.429Z,13.52
2023-05-08T04:07:17.736Z,14.87
2023-05-08T04:10:34.858Z,14.20
2023-05-08T04:13:26.045Z,16.80
2023-05-08T04:16:11.958Z,14.13
2023-05-08T04:18:45.982Z,14.93
2023-05-08T04:21:19.998Z,14.35
2023-05-08T04:23:50.663Z,16.80
2023-05-08T04:26:19.173Z,16.23
2023-05-08T04:28:47.502Z,15.75
2023-05-08T04:31:16.556Z,18.58
2023-05-08T04:33:45.258Z,15.88
2023-05-08T04:36:13.740Z,14.18
2023-05-08T04:38:41.636Z,13.57
2023-05-08T04:41:09.408Z,14.48
2023-05-08T04:43:37.818Z,14.20
2023-05-08T04:46:06.277Z,17.20
2023-05-08T04:48:34.323Z,13.85
2023-05-08T04:51:01.944Z,15.15
2023-05-08T04:53:29.381Z,18.40
2023-05-08T04:55:58.573Z,16.35
2023-05-08T04:58:26.409Z,17.42
2023-05-08T05:00:54.285Z,18.00
2023-05-08T05:03:22.295Z,18.08
2023-05-08T05:05:49.887Z,18.23
2023-05-08T05:08:17.249Z,19.45
2023-05-08T05:10:45.124Z,20.42
2023-05-08T05:13:12.524Z,19.25
2023-05-08T05:15:42.540Z,19.35
2023-05-08T05:18:10.625Z,18.15
2023-05-08T05:20:38.511Z,17.05
2023-05-08T05:23:05.916Z,18.13
2023-05-08T05:25:34.825Z,17.80
2023-05-08T05:28:02.299Z,17.67
2023-05-08T05:30:29.993Z,17.65
2023-05-08T05:32:57.980Z,17.97
2023-05-08T05:35:25.845Z,16.60
2023-05-08T05:37:53.603Z,15.93
2023-05-08T05:40:21.433Z,13.40
2023-05-08T05:42:50.276Z,10.57
2023-05-08T05:45:18.427Z,10.75
2023-05-08T05:47:50.121Z,13.43
2023-05-08T05:50:18.719Z,11.10
2023-05-08T05:52:47.208Z,8.57
2023-05-08T05:55:14.949Z,8.20
2023-05-08T05:57:42.646Z,9.48
2023-05-08T06:00:11.366Z,7.93
2023-05-08T06:02:44.541Z,8.38
2023-05-08T06:05:13.077Z,6.07
2023-05-08T06:07:40.867Z,6.00
2023-05-08T06:10:08.597Z,6.18
2023-05-08T06:12:36.468Z,5.82
2023-05-08T06:15:04.938Z,6.75
2023-05-08T06:17:51.348Z,5.50
2023-05-08T06:20:19.224Z,4.30
2023-05-08T06:22:46.634Z,5.12
2023-05-08T06:25:14.316Z,6.20
2023-05-08T06:27:42.272Z,5.97
2023-05-08T06:30:10.898Z,4.65
2023-05-08T06:32:39.032Z,7.40
2023-05-08T06:35:07.809Z,5.03
2023-05-08T06:37:35.392Z,4.57
2023-05-08T06:40:12.045Z,4.80
2023-05-08T06:42:40.223Z,3.85
2023-05-08T06:45:09.029Z,4.43
2023-05-08T06:47:36.530Z,4.68
2023-05-08T06:50:04.577Z,3.53
2023-05-08T06:52:32.086Z,3.33
2023-05-08T06:54:59.701Z,5.57
2023-05-08T06:57:29.404Z,3.50
2023-05-08T06:59:57.052Z,2.42
2023-05-08T07:02:24.665Z,4.30
2023-05-08T07:04:52.421Z,7.05
2023-05-08T07:07:19.918Z,2.75
2023-05-08T07:09:47.290Z,3.87
2023-05-08T07:12:16.711Z,3.40
2023-05-08T07:14:44.168Z,3.47
2023-05-08T07:17:11.606Z,2.87
2023-05-08T07:19:39.513Z,2.60
2023-05-08T07:22:06.973Z,4.80
2023-05-08T07:24:34.365Z,2.47
2023-05-08T07:27:03.224Z,3.58
2023-05-08T07:29:30.628Z,3.17
2023-05-08T07:31:58.282Z,3.47
2023-05-08T07:34:26.264Z,2.72
2023-05-08T07:36:53.713Z,3.55
2023-05-08T07:39:21.154Z,2.25
2023-05-08T08:33:28.744Z,3.58
